Time;durP1;ratioP1;P1;durP2;ratioP2;P2;SDS_P1;SDS_P2;PMS_P1;PMS_P2;Temp;Humidity;BMP_temperature;BMP_pressure;BME280_temperature;BME280_humidity;BME280_pressure;Samples;Min_cycle;Max_cycle;Signal;HPM_P1;HPM_P2
2021/04/06 00:01:00;;;;;;;;;;;0.80;99.90;;;;;;6881980;28;19913;-68
2021/04/06 00:04:22;;;;;;;;;;;0.80;99.90;;;;;;6881876;28;19920;-65
2021/04/06 00:07:43;;;;;;;;;;;0.70;99.90;;;;;;6898574;28;20262;-66
2021/04/06 00:11:05;;;;;;;;;;;0.80;99.90;;;;;;6898441;28;19913;-68
2021/04/06 00:14:26;;;;;;;;;;;0.70;99.90;;;;;;6870132;28;19917;-67
2021/04/06 00:17:48;;;;;;;;;;;0.80;99.90;;;;;;6884242;28;19914;-66
2021/04/06 00:21:10;;;;;;;;;;;0.80;99.90;;;;;;6893753;28;19921;-66
2021/04/06 00:24:33;;;;;;;;;;;0.80;99.90;;;;;;6875232;28;19921;-66
2021/04/06 00:27:55;;;;;;;;;;;0.80;99.90;;;;;;6883516;28;19924;-66
2021/04/06 00:31:16;;;;;;;;;;;0.80;99.90;;;;;;6875905;28;19913;-65
2021/04/06 00:34:37;;;;;;;;;;;0.80;99.90;;;;;;6879941;28;19924;-66
2021/04/06 00:37:58;;;;;;;;;;;0.70;99.90;;;;;;6894415;28;20366;-66
2021/04/06 00:41:20;;;;;;;;;;;0.80;99.90;;;;;;6908946;28;19914;-66
2021/04/06 00:44:42;;;;;;;;;;;0.80;99.90;;;;;;6882831;28;19924;-66
2021/04/06 00:48:06;;;;;;;;;;;0.80;99.90;;;;;;6877500;28;20282;-66
2021/04/06 00:51:36;;;;;;;;;;;0.90;99.90;;;;;;6881651;28;20000;-67
2021/04/06 00:54:58;;;;;;;;;;;0.80;99.90;;;;;;6878329;28;19921;-66
2021/04/06 00:58:18;;;;;;;;;;;0.80;99.90;;;;;;6880152;28;19921;-69
2021/04/06 01:01:41;;;;;;;;;;;0.80;99.90;;;;;;6877889;28;19913;-66
2021/04/06 01:05:05;;;;;;;;;;;0.80;99.90;;;;;;6870849;28;20670;-65
2021/04/06 01:08:31;;;;;;;;;;;0.80;99.90;;;;;;6872801;28;19913;-66
2021/04/06 01:11:52;;;;;;;;;;;0.80;99.90;;;;;;6889359;28;19918;-66
2021/04/06 01:15:13;;;;;;;;;;;0.80;99.90;;;;;;6887932;28;19960;-66
2021/04/06 01:18:34;;;;;;;;;;;0.70;99.90;;;;;;6883096;28;20520;-65
2021/04/06 01:21:58;;;;;;;;;;;0.70;99.90;;;;;;6894990;28;19920;-67
2021/04/06 01:25:19;;;;;;;;;;;0.60;99.90;;;;;;6881006;28;19913;-66
2021/04/06 01:28:40;;;;;;;;;;;0.60;99.90;;;;;;6879506;28;19917;-68
2021/04/06 01:32:01;;;;;;;;;;;0.60;99.90;;;;;;6890544;28;19913;-67
2021/04/06 01:35:22;;;;;;;;;;;0.50;99.90;;;;;;6889114;28;19914;-68
2021/04/06 01:38:43;;;;;;;;;;;0.50;99.90;;;;;;6866307;28;19914;-68
2021/04/06 01:42:08;;;;;;;;;;;0.50;99.90;;;;;;6904769;28;20012;-68
2021/04/06 01:45:30;;;;;;;;;;;0.50;99.90;;;;;;6875224;28;19913;-66
2021/04/06 01:48:51;;;;;;;;;;;0.50;99.90;;;;;;6876886;28;19924;-66
2021/04/06 01:52:13;;;;;;;;;;;0.60;99.90;;;;;;6887023;28;19948;-68
2021/04/06 01:55:36;;;;;;;;;;;0.50;99.90;;;;;;6874240;28;19913;-68
2021/04/06 01:59:04;;;;;;;;;;;0.60;99.90;;;;;;6878530;28;19920;-67
2021/04/06 02:02:28;;;;;;;;;;;0.50;99.90;;;;;;6880368;28;19920;-66
2021/04/06 02:05:51;;;;;;;;;;;0.50;99.90;;;;;;6893843;28;19917;-66
2021/04/06 02:09:12;;;;;;;;;;;0.60;99.90;;;;;;6882184;28;19940;-67
2021/04/06 02:12:45;;;;;;;;;;;0.50;99.90;;;;;;6888167;28;20347;-66
2021/04/06 02:16:05;;;;;;;;;;;0.60;99.90;;;;;;6880532;28;19920;-65
2021/04/06 02:19:31;;;;;;;;;;;0.50;99.90;;;;;;6864343;28;19945;-67
2021/04/06 02:22:56;;;;;;;;;;;0.50;99.90;;;;;;6886248;28;19941;-66
2021/04/06 02:26:20;;;;;;;;;;;0.50;99.90;;;;;;6892926;28;19914;-66
2021/04/06 02:29:42;;;;;;;;;;;0.70;99.90;;;;;;6903077;28;19913;-65
2021/04/06 02:33:03;;;;;;;;;;;0.70;99.90;;;;;;6885188;28;20449;-67
2021/04/06 02:36:25;;;;;;;;;;;0.60;99.90;;;;;;6881932;28;20004;-69
2021/04/06 02:39:49;;;;;;;;;;;0.70;99.90;;;;;;6896733;28;19920;-65
2021/04/06 02:43:11;;;;;;;;;;;0.70;99.90;;;;;;6910258;28;19925;-65
2021/04/06 02:46:35;;;;;;;;;;;0.70;99.90;;;;;;6877379;28;20008;-67
2021/04/06 02:49:55;;;;;;;;;;;0.70;99.90;;;;;;6877401;28;20286;-68
2021/04/06 02:53:17;;;;;;;;;;;0.70;99.90;;;;;;6862857;28;19918;-67
2021/04/06 02:56:38;;;;;;;;;;;0.70;99.90;;;;;;6874032;28;19919;-68
2021/04/06 02:59:59;;;;;;;;;;;0.60;99.90;;;;;;6899769;28;19920;-65
2021/04/06 03:03:21;;;;;;;;;;;0.70;99.90;;;;;;6885185;28;20273;-65
2021/04/06 03:06:42;;;;;;;;;;;0.70;99.90;;;;;;6883454;28;19917;-65
2021/04/06 03:10:03;;;;;;;;;;;0.70;99.90;;;;;;6879506;28;19931;-66
2021/04/06 03:13:25;;;;;;;;;;;0.80;99.90;;;;;;6884331;28;19924;-66
2021/04/06 03:16:48;;;;;;;;;;;0.90;99.90;;;;;;6912740;28;19928;-67
2021/04/06 03:20:12;;;;;;;;;;;0.90;99.90;;;;;;6873293;28;19924;-67
2021/04/06 03:23:33;;;;;;;;;;;0.80;99.90;;;;;;6873154;28;19920;-66
2021/04/06 03:26:56;;;;;;;;;;;0.90;99.90;;;;;;6892795;28;19969;-65
2021/04/06 03:30:33;;;;;;;;;;;1.00;99.90;;;;;;6903511;28;20392;-66
2021/04/06 03:33:55;;;;;;;;;;;1.10;99.90;;;;;;6883391;28;19917;-66
2021/04/06 03:37:16;;;;;;;;;;;1.20;99.90;;;;;;6881064;28;19917;-67
2021/04/06 03:40:37;;;;;;;;;;;1.30;99.90;;;;;;6882420;28;19913;-67
2021/04/06 03:44:03;;;;;;;;;;;1.40;99.90;;;;;;6893108;28;19917;-67
2021/04/06 03:47:24;;;;;;;;;;;1.30;99.90;;;;;;6881890;28;19959;-67
2021/04/06 03:50:45;;;;;;;;;;;1.30;99.90;;;;;;6876034;28;20302;-66
2021/04/06 03:54:06;;;;;;;;;;;1.40;99.90;;;;;;6878717;28;19940;-64
2021/04/06 03:57:29;;;;;;;;;;;1.30;99.90;;;;;;6912982;28;19913;-65
2021/04/06 04:00:49;;;;;;;;;;;1.30;99.90;;;;;;6874585;28;19913;-68
2021/04/06 04:04:10;;;;;;;;;;;1.20;99.90;;;;;;6878006;28;19936;-67
2021/04/06 04:07:34;;;;;;;;;;;1.30;99.90;;;;;;6864686;28;19922;-64
2021/04/06 04:10:55;;;;;;;;;;;1.30;99.90;;;;;;6895844;28;19919;-65
2021/04/06 04:14:16;;;;;;;;;;;1.30;99.90;;;;;;6899191;28;19917;-67
2021/04/06 04:17:39;;;;;;;;;;;1.40;99.90;;;;;;6910518;28;19913;-67
2021/04/06 04:21:03;;;;;;;;;;;1.50;99.90;;;;;;6870652;28;19975;-67
2021/04/06 04:24:24;;;;;;;;;;;1.60;99.90;;;;;;6882268;28;20008;-67
2021/04/06 04:27:45;;;;;;;;;;;1.60;99.90;;;;;;6894927;28;19913;-67
2021/04/06 04:31:10;;;;;;;;;;;1.70;99.90;;;;;;6876844;28;19918;-67
2021/04/06 04:34:31;;;;;;;;;;;1.70;99.90;;;;;;6873486;28;19925;-68
2021/04/06 04:37:52;;;;;;;;;;;1.70;99.90;;;;;;6862879;28;19953;-67
2021/04/06 04:41:12;;;;;;;;;;;1.70;99.90;;;;;;6882914;28;19968;-67
2021/04/06 04:44:33;;;;;;;;;;;1.80;99.90;;;;;;6882668;28;19917;-67
2021/04/06 04:47:54;;;;;;;;;;;1.70;99.90;;;;;;6869192;28;19920;-64
2021/04/06 04:51:16;;;;;;;;;;;1.80;99.90;;;;;;6883388;28;20022;-68
2021/04/06 04:54:37;;;;;;;;;;;1.90;99.90;;;;;;6860090;28;20362;-67
2021/04/06 04:57:57;;;;;;;;;;;1.90;99.90;;;;;;6882953;28;19913;-65
2021/04/06 05:01:18;;;;;;;;;;;1.90;99.90;;;;;;6875803;28;19920;-65
2021/04/06 05:04:39;;;;;;;;;;;1.80;99.90;;;;;;6860872;28;19963;-68
2021/04/06 05:08:00;;;;;;;;;;;1.80;99.90;;;;;;6860838;28;19914;-68
2021/04/06 05:11:21;;;;;;;;;;;1.80;99.90;;;;;;6882164;28;19913;-68
2021/04/06 05:14:42;;;;;;;;;;;1.90;99.90;;;;;;6860180;28;19934;-67
2021/04/06 05:18:02;;;;;;;;;;;1.80;99.90;;;;;;6872530;28;19921;-67
2021/04/06 05:21:23;;;;;;;;;;;1.80;99.90;;;;;;6878408;28;20235;-65
2021/04/06 05:24:44;;;;;;;;;;;1.80;99.90;;;;;;6878866;28;19936;-67
2021/04/06 05:28:04;;;;;;;;;;;1.90;99.90;;;;;;6896703;28;19913;-66
2021/04/06 05:31:25;;;;;;;;;;;2.00;99.90;;;;;;6865748;28;19914;-66
2021/04/06 05:34:46;;;;;;;;;;;2.20;99.90;;;;;;6853331;28;19918;-66
2021/04/06 05:38:07;;;;;;;;;;;2.30;99.90;;;;;;6841685;28;19922;-67
2021/04/06 05:41:27;;;;;;;;;;;2.20;99.90;;;;;;6856543;28;20330;-66
2021/04/06 05:44:48;;;;;;;;;;;2.20;99.90;;;;;;6856638;28;20296;-67
2021/04/06 05:48:12;;;;;;;;;;;2.10;99.90;;;;;;6876201;28;20421;-65
2021/04/06 05:51:35;;;;;;;;;;;2.10;99.90;;;;;;6868122;28;19960;-66
2021/04/06 05:54:56;;;;;;;;;;;2.10;99.90;;;;;;6883055;28;19928;-66
2021/04/06 05:58:17;;;;;;;;;;;2.10;99.90;;;;;;6893533;28;20048;-64
2021/04/06 06:01:39;;;;;;;;;;;2.20;99.90;;;;;;6876318;28;20301;-66
2021/04/06 06:05:00;;;;;;;;;;;2.20;99.90;;;;;;6886139;28;19913;-67
2021/04/06 06:08:24;;;;;;;;;;;2.40;99.90;;;;;;6896766;28;20034;-66
2021/04/06 06:11:59;;;;;;;;;;;2.40;99.90;;;;;;6865826;28;19968;-67
2021/04/06 06:15:20;;;;;;;;;;;2.30;99.90;;;;;;6879740;28;20374;-67
2021/04/06 06:18:59;;;;;;;;;;;2.30;99.90;;;;;;6877787;28;19945;-64
2021/04/06 06:22:21;;;;;;;;;;;2.40;99.90;;;;;;6889798;28;20296;-64
2021/04/06 06:25:42;;;;;;;;;;;2.40;99.90;;;;;;6879439;28;19921;-64
2021/04/06 06:29:05;;;;;;;;;;;2.50;99.90;;;;;;6906100;28;19968;-65
2021/04/06 06:32:26;;;;;;;;;;;2.60;99.90;;;;;;6884614;28;19914;-67
2021/04/06 06:35:51;;;;;;;;;;;2.70;99.90;;;;;;6908752;28;19959;-67
2021/04/06 06:39:12;;;;;;;;;;;2.90;99.90;;;;;;6885114;28;19918;-67
2021/04/06 06:42:34;;;;;;;;;;;3.00;99.90;;;;;;6890105;28;20014;-66
2021/04/06 06:45:55;;;;;;;;;;;3.20;99.90;;;;;;6881857;28;19920;-66
2021/04/06 06:49:28;;;;;;;;;;;3.30;99.90;;;;;;6880415;28;19914;-66
2021/04/06 06:52:52;;;;;;;;;;;3.50;99.90;;;;;;6875576;28;20001;-66
2021/04/06 06:56:13;;;;;;;;;;;3.90;99.90;;;;;;6870864;28;19913;-65
2021/04/06 06:59:34;;;;;;;;;;;4.30;99.90;;;;;;6877864;28;20016;-66
2021/04/06 07:02:55;;;;;;;;;;;4.80;99.90;;;;;;6864058;28;19957;-66
2021/04/06 07:06:22;;;;;;;;;;;5.10;99.90;;;;;;6875649;28;19913;-67
2021/04/06 07:09:44;;;;;;;;;;;4.70;99.90;;;;;;6885221;28;19913;-70
2021/04/06 07:13:04;;;;;;;;;;;4.00;99.90;;;;;;6872801;28;20043;-69
2021/04/06 07:16:25;;;;;;;;;;;3.60;99.90;;;;;;6879241;28;20005;-67
2021/04/06 07:19:47;;;;;;;;;;;3.40;99.90;;;;;;6880211;28;19913;-69
2021/04/06 07:23:08;;;;;;;;;;;3.20;99.90;;;;;;6871248;28;19917;-67
2021/04/06 07:26:30;;;;;;;;;;;3.40;99.90;;;;;;6869787;28;19921;-67
2021/04/06 07:29:52;;;;;;;;;;;3.70;99.90;;;;;;6877374;28;19965;-67
2021/04/06 07:33:14;;;;;;;;;;;3.90;99.90;;;;;;6874140;28;19917;-67
2021/04/06 07:36:35;;;;;;;;;;;4.10;99.90;;;;;;6880678;28;19917;-66
2021/04/06 07:40:00;;;;;;;;;;;4.40;99.90;;;;;;6865789;28;19921;-70
2021/04/06 07:43:21;;;;;;;;;;;4.70;99.90;;;;;;6889398;28;19921;-66
2021/04/06 07:46:44;;;;;;;;;;;4.50;99.90;;;;;;6896270;28;19940;-68
2021/04/06 07:50:10;;;;;;;;;;;4.70;99.90;;;;;;6870713;28;19917;-69
2021/04/06 07:53:34;;;;;;;;;;;4.90;99.90;;;;;;6865438;28;20393;-68
2021/04/06 07:56:56;;;;;;;;;;;5.30;99.90;;;;;;6877445;28;20391;-69
2021/04/06 08:00:36;;;;;;;;;;;5.00;99.90;;;;;;6887316;28;19913;-68
2021/04/06 08:04:04;;;;;;;;;;;5.10;99.90;;;;;;6882552;28;19917;-69
2021/04/06 08:07:32;;;;;;;;;;;5.10;99.90;;;;;;6906814;28;20000;-68
2021/04/06 08:10:53;;;;;;;;;;;4.90;99.90;;;;;;6878085;28;20312;-67
2021/04/06 08:14:16;;;;;;;;;;;4.60;99.90;;;;;;6873656;28;20000;-68
2021/04/06 08:17:40;;;;;;;;;;;4.40;99.90;;;;;;6892759;28;19919;-67
2021/04/06 08:21:08;;;;;;;;;;;4.20;99.90;;;;;;6877975;28;19917;-68
2021/04/06 08:24:29;;;;;;;;;;;4.20;99.90;;;;;;6882511;28;20000;-68
2021/04/06 08:27:49;;;;;;;;;;;4.30;99.90;;;;;;6894324;28;19920;-67
2021/04/06 08:31:14;;;;;;;;;;;5.00;99.90;;;;;;6882512;28;19921;-66
2021/04/06 08:34:35;;;;;;;;;;;5.30;99.90;;;;;;6887199;28;19960;-66
2021/04/06 08:37:56;;;;;;;;;;;5.60;99.90;;;;;;6876332;28;19920;-67
2021/04/06 08:41:23;;;;;;;;;;;6.30;99.90;;;;;;6877504;28;19914;-67
2021/04/06 08:44:44;;;;;;;;;;;6.30;99.90;;;;;;6890550;28;20019;-67
2021/04/06 08:48:05;;;;;;;;;;;5.80;99.90;;;;;;6871230;28;20000;-66
2021/04/06 08:51:29;;;;;;;;;;;5.20;99.90;;;;;;6866865;28;19913;-66
2021/04/06 08:54:50;;;;;;;;;;;4.60;99.90;;;;;;6871749;28;19918;-67
2021/04/06 08:58:10;;;;;;;;;;;4.30;99.90;;;;;;6877804;28;20290;-66
2021/04/06 09:01:31;;;;;;;;;;;4.10;99.90;;;;;;6872995;28;19928;-66
2021/04/06 09:04:56;;;;;;;;;;;3.80;99.90;;;;;;6864614;28;19913;-66
2021/04/06 09:08:17;;;;;;;;;;;3.50;99.90;;;;;;6884087;28;19925;-67
2021/04/06 09:11:39;;;;;;;;;;;3.40;99.90;;;;;;6881141;28;20399;-65
2021/04/06 09:15:00;;;;;;;;;;;3.40;99.90;;;;;;6896989;28;20039;-66
2021/04/06 09:18:22;;;;;;;;;;;3.30;99.90;;;;;;6873721;28;20384;-66
2021/04/06 09:21:45;;;;;;;;;;;3.30;99.90;;;;;;6893719;28;20315;-66
2021/04/06 09:25:16;;;;;;;;;;;3.30;99.90;;;;;;6869942;28;19924;-66
2021/04/06 09:28:38;;;;;;;;;;;3.30;99.90;;;;;;6880233;28;19959;-66
2021/04/06 09:32:03;;;;;;;;;;;3.50;99.90;;;;;;6888846;28;19939;-66
2021/04/06 09:35:24;;;;;;;;;;;3.60;99.90;;;;;;6880080;28;19940;-66
2021/04/06 09:38:44;;;;;;;;;;;3.70;99.90;;;;;;6892136;28;19960;-66
2021/04/06 09:42:06;;;;;;;;;;;3.80;99.90;;;;;;6884691;28;19914;-66
2021/04/06 09:45:29;;;;;;;;;;;4.80;99.90;;;;;;6871582;28;20052;-66
2021/04/06 09:48:54;;;;;;;;;;;5.70;99.90;;;;;;6872617;28;19936;-65
2021/04/06 09:52:16;;;;;;;;;;;6.70;99.90;;;;;;6880288;28;20425;-65
2021/04/06 09:55:37;;;;;;;;;;;6.80;99.90;;;;;;6866721;28;19924;-66
2021/04/06 09:58:58;;;;;;;;;;;6.80;99.90;;;;;;6883839;28;19913;-66
2021/04/06 10:02:20;;;;;;;;;;;7.40;99.90;;;;;;6886814;28;19925;-66
2021/04/06 10:05:43;;;;;;;;;;;6.90;99.90;;;;;;6884858;28;19917;-66
2021/04/06 10:09:21;;;;;;;;;;;5.70;99.90;;;;;;6861046;28;19957;-66
2021/04/06 10:12:42;;;;;;;;;;;5.00;99.90;;;;;;6863073;28;19921;-66
2021/04/06 10:16:05;;;;;;;;;;;4.90;99.90;;;;;;6869458;28;19955;-64
2021/04/06 10:19:27;;;;;;;;;;;5.10;99.90;;;;;;6888723;28;19920;-66
2021/04/06 10:22:53;;;;;;;;;;;5.70;99.90;;;;;;6874582;28;20378;-65
2021/04/06 10:26:21;;;;;;;;;;;7.20;99.90;;;;;;6865730;28;19913;-66
2021/04/06 10:29:42;;;;;;;;;;;8.00;99.90;;;;;;6878713;28;19924;-65
2021/04/06 10:33:10;;;;;;;;;;;8.70;99.90;;;;;;6896958;28;19956;-67
2021/04/06 10:36:31;;;;;;;;;;;8.90;99.90;;;;;;6864266;28;20399;-65
2021/04/06 10:39:52;;;;;;;;;;;9.20;99.90;;;;;;6876734;28;19913;-65
2021/04/06 10:43:14;;;;;;;;;;;9.20;99.90;;;;;;6861820;28;20008;-66
2021/04/06 10:46:41;;;;;;;;;;;8.20;99.90;;;;;;6867292;28;19914;-66
2021/04/06 10:50:04;;;;;;;;;;;6.90;99.90;;;;;;6883726;28;19913;-65
2021/04/06 10:53:29;;;;;;;;;;;6.40;99.90;;;;;;6873119;28;20314;-65
2021/04/06 10:56:53;;;;;;;;;;;6.10;99.90;;;;;;6901695;28;19921;-65
2021/04/06 11:00:22;;;;;;;;;;;6.00;99.90;;;;;;6875691;28;20380;-66
2021/04/06 11:03:56;;;;;;;;;;;5.70;99.90;;;;;;6878477;28;20243;-67
2021/04/06 11:07:30;;;;;;;;;;;7.70;99.90;;;;;;6874736;28;19924;-66
2021/04/06 11:10:52;;;;;;;;;;;12.90;99.90;;;;;;6870383;28;19929;-67
2021/04/06 11:14:14;;;;;;;;;;;14.10;99.90;;;;;;6874981;28;19925;-68
2021/04/06 11:17:35;;;;;;;;;;;16.00;99.10;;;;;;6889062;28;19913;-66
2021/04/06 11:20:56;;;;;;;;;;;18.30;92.40;;;;;;6893284;28;20273;-66
2021/04/06 11:24:18;;;;;;;;;;;17.90;88.50;;;;;;6873355;28;19917;-67
2021/04/06 11:27:38;;;;;;;;;;;19.10;85.70;;;;;;6906466;28;19913;-67
2021/04/06 11:30:59;;;;;;;;;;;17.10;82.20;;;;;;6876281;28;20385;-66
2021/04/06 11:34:20;;;;;;;;;;;16.40;86.40;;;;;;6873022;28;20485;-66
2021/04/06 11:37:41;;;;;;;;;;;13.20;89.70;;;;;;6882184;28;19921;-66
2021/04/06 11:41:02;;;;;;;;;;;9.70;95.10;;;;;;6868038;28;19936;-65
2021/04/06 11:44:23;;;;;;;;;;;7.80;99.90;;;;;;6880400;28;20366;-65
2021/04/06 11:47:43;;;;;;;;;;;6.20;99.90;;;;;;6894649;28;20286;-65
2021/04/06 11:51:05;;;;;;;;;;;6.20;99.90;;;;;;6911788;28;19968;-65
2021/04/06 11:54:25;;;;;;;;;;;6.60;99.90;;;;;;6867022;28;19918;-65
2021/04/06 11:57:46;;;;;;;;;;;6.70;99.90;;;;;;6875272;28;19913;-66
2021/04/06 12:01:08;;;;;;;;;;;6.70;99.90;;;;;;6869416;28;19920;-66
2021/04/06 12:04:30;;;;;;;;;;;7.70;99.90;;;;;;6883717;28;19914;-66
2021/04/06 12:07:50;;;;;;;;;;;10.00;99.90;;;;;;6879423;28;19913;-66
2021/04/06 12:11:11;;;;;;;;;;;12.80;99.90;;;;;;6873300;28;19924;-66
2021/04/06 12:14:32;;;;;;;;;;;18.60;95.10;;;;;;6893038;28;19925;-66
2021/04/06 12:17:54;;;;;;;;;;;17.60;87.50;;;;;;6861296;28;20490;-66
2021/04/06 12:21:15;;;;;;;;;;;17.10;86.00;;;;;;6890702;28;19920;-67
2021/04/06 12:24:36;;;;;;;;;;;17.00;86.80;;;;;;6878210;28;19913;-67
2021/04/06 12:27:56;;;;;;;;;;;20.50;83.30;;;;;;6876524;28;19914;-68
2021/04/06 12:31:17;;;;;;;;;;;20.30;76.10;;;;;;6883186;28;19948;-67
2021/04/06 12:34:40;;;;;;;;;;;23.60;78.10;;;;;;6883367;28;19925;-66
2021/04/06 12:38:01;;;;;;;;;;;24.10;67.30;;;;;;6876477;28;19996;-67
2021/04/06 12:41:22;;;;;;;;;;;19.30;67.90;;;;;;6877177;28;19920;-66
2021/04/06 12:44:43;;;;;;;;;;;14.70;75.10;;;;;;6872756;28;19917;-67
2021/04/06 12:48:05;;;;;;;;;;;11.60;82.60;;;;;;6887117;28;19952;-67
2021/04/06 12:51:26;;;;;;;;;;;9.30;90.70;;;;;;6872893;28;19921;-67
2021/04/06 12:54:47;;;;;;;;;;;8.40;92.60;;;;;;6864040;28;19918;-66
2021/04/06 12:58:08;;;;;;;;;;;8.60;95.60;;;;;;6871807;28;19921;-68
2021/04/06 13:01:29;;;;;;;;;;;9.20;95.10;;;;;;6895416;28;19913;-67
2021/04/06 13:04:50;;;;;;;;;;;10.00;93.10;;;;;;6867669;28;20012;-66
2021/04/06 13:08:11;;;;;;;;;;;10.30;92.80;;;;;;6882292;28;20528;-69
2021/04/06 13:11:32;;;;;;;;;;;11.40;92.60;;;;;;6870464;28;20378;-70
2021/04/06 13:14:53;;;;;;;;;;;12.40;90.10;;;;;;6868482;28;20051;-68
2021/04/06 13:18:14;;;;;;;;;;;15.10;90.70;;;;;;6873787;28;19917;-68
2021/04/06 13:21:35;;;;;;;;;;;16.10;82.90;;;;;;6861915;28;19921;-67
2021/04/06 13:24:56;;;;;;;;;;;13.80;79.40;;;;;;6867117;28;20367;-67
2021/04/06 13:28:17;;;;;;;;;;;12.40;90.00;;;;;;6861451;28;19920;-66
2021/04/06 13:31:38;;;;;;;;;;;11.40;92.10;;;;;;6867631;28;19967;-65
2021/04/06 13:34:59;;;;;;;;;;;10.40;94.40;;;;;;6857276;28;20011;-67
2021/04/06 13:38:20;;;;;;;;;;;12.30;94.20;;;;;;6853972;28;20614;-66
2021/04/06 13:41:41;;;;;;;;;;;11.30;93.00;;;;;;6873356;28;19921;-66
2021/04/06 13:45:04;;;;;;;;;;;9.70;94.50;;;;;;6861657;28;19918;-66
2021/04/06 13:48:25;;;;;;;;;;;8.80;96.60;;;;;;6867463;28;19913;-65
2021/04/06 13:51:46;;;;;;;;;;;8.20;98.00;;;;;;6854770;28;20314;-66
2021/04/06 13:55:08;;;;;;;;;;;8.50;98.20;;;;;;6856144;28;20346;-67
2021/04/06 13:58:28;;;;;;;;;;;8.10;98.80;;;;;;6883751;28;19920;-65
2021/04/06 14:01:49;;;;;;;;;;;7.40;99.90;;;;;;6867516;28;19917;-72
2021/04/06 14:05:11;;;;;;;;;;;7.00;99.90;;;;;;6887196;28;19961;-65
2021/04/06 14:08:32;;;;;;;;;;;6.50;99.90;;;;;;6865221;28;19921;-64
2021/04/06 14:11:53;;;;;;;;;;;6.10;99.90;;;;;;6860151;28;19936;-64
2021/04/06 14:15:13;;;;;;;;;;;5.80;99.90;;;;;;6866879;28;19925;-65
2021/04/06 14:18:34;;;;;;;;;;;5.70;99.90;;;;;;6879993;28;19917;-65
2021/04/06 14:21:55;;;;;;;;;;;5.60;99.90;;;;;;6891861;28;19914;-66
2021/04/06 14:25:17;;;;;;;;;;;5.50;99.90;;;;;;6901238;28;20370;-66
2021/04/06 14:28:38;;;;;;;;;;;5.60;99.90;;;;;;6885614;28;19920;-65
2021/04/06 14:31:58;;;;;;;;;;;5.50;99.90;;;;;;6868536;28;19914;-66
2021/04/06 14:35:19;;;;;;;;;;;5.60;99.90;;;;;;6875174;28;19933;-66
2021/04/06 14:38:40;;;;;;;;;;;6.60;99.90;;;;;;6876652;28;19958;-65
2021/04/06 14:42:01;;;;;;;;;;;8.40;99.90;;;;;;6897796;28;20000;-67
2021/04/06 14:45:22;;;;;;;;;;;10.20;99.90;;;;;;6887745;28;20247;-67
2021/04/06 14:48:47;;;;;;;;;;;12.40;96.50;;;;;;6878728;28;19914;-67
2021/04/06 14:52:10;;;;;;;;;;;13.50;91.90;;;;;;6852716;28;19917;-67
2021/04/06 14:55:31;;;;;;;;;;;13.20;92.00;;;;;;6875303;28;19953;-67
2021/04/06 14:58:53;;;;;;;;;;;13.40;92.30;;;;;;6884591;28;19921;-66
2021/04/06 15:02:14;;;;;;;;;;;13.20;92.80;;;;;;6862640;28;20374;-66
2021/04/06 15:05:35;;;;;;;;;;;12.50;92.50;;;;;;6863919;28;20008;-65
2021/04/06 15:08:56;;;;;;;;;;;12.40;92.70;;;;;;6876700;28;20520;-65
2021/04/06 15:12:17;;;;;;;;;;;12.90;90.90;;;;;;6874325;28;19922;-66
2021/04/06 15:15:38;;;;;;;;;;;13.30;90.00;;;;;;6868018;28;20277;-67
2021/04/06 15:18:59;;;;;;;;;;;15.30;89.10;;;;;;6881810;28;19914;-66
2021/04/06 15:22:21;;;;;;;;;;;14.60;86.60;;;;;;6866351;28;20287;-65
2021/04/06 15:25:42;;;;;;;;;;;11.90;87.20;;;;;;6879624;28;19960;-65
2021/04/06 15:29:03;;;;;;;;;;;10.00;90.40;;;;;;6884059;28;19913;-66
2021/04/06 15:32:23;;;;;;;;;;;9.40;92.80;;;;;;6881182;28;20282;-66
2021/04/06 15:35:44;;;;;;;;;;;8.80;94.30;;;;;;6880784;28;19917;-66
2021/04/06 15:39:05;;;;;;;;;;;8.00;94.70;;;;;;6874536;28;19967;-65
2021/04/06 15:42:26;;;;;;;;;;;7.40;96.10;;;;;;6880644;28;19913;-66
2021/04/06 15:45:48;;;;;;;;;;;6.90;99.50;;;;;;6879088;28;19913;-66
2021/04/06 15:49:09;;;;;;;;;;;6.30;99.90;;;;;;6870875;28;19913;-66
2021/04/06 15:52:35;;;;;;;;;;;6.10;99.90;;;;;;6886797;28;19933;-66
2021/04/06 15:55:56;;;;;;;;;;;6.40;99.90;;;;;;6881771;28;19979;-66
2021/04/06 15:59:18;;;;;;;;;;;7.50;99.90;;;;;;6881925;28;20346;-66
2021/04/06 16:02:39;;;;;;;;;;;8.40;99.90;;;;;;6886041;28;19921;-66
2021/04/06 16:06:00;;;;;;;;;;;9.90;99.90;;;;;;6862389;28;19914;-67
2021/04/06 16:09:21;;;;;;;;;;;9.60;99.50;;;;;;6863117;28;19913;-67
2021/04/06 16:12:42;;;;;;;;;;;8.90;99.90;;;;;;6882876;28;19920;-67
2021/04/06 16:16:03;;;;;;;;;;;8.10;99.90;;;;;;6882511;28;20256;-66
2021/04/06 16:19:25;;;;;;;;;;;7.70;99.90;;;;;;6877387;28;19921;-67
2021/04/06 16:22:46;;;;;;;;;;;7.00;99.90;;;;;;6879143;28;19918;-66
2021/04/06 16:26:07;;;;;;;;;;;6.60;99.90;;;;;;6867284;28;19956;-67
2021/04/06 16:29:34;;;;;;;;;;;6.40;99.90;;;;;;6867558;28;20362;-67
2021/04/06 16:32:55;;;;;;;;;;;6.30;99.90;;;;;;6884073;28;19913;-67
2021/04/06 16:36:17;;;;;;;;;;;6.30;99.90;;;;;;6862217;28;19918;-66
2021/04/06 16:39:38;;;;;;;;;;;6.10;99.90;;;;;;6865627;28;20342;-66
2021/04/06 16:42:59;;;;;;;;;;;5.70;99.90;;;;;;6882112;28;20295;-66
2021/04/06 16:46:20;;;;;;;;;;;5.60;99.90;;;;;;6887367;28;19913;-65
2021/04/06 16:49:40;;;;;;;;;;;5.50;99.90;;;;;;6865201;28;20415;-67
2021/04/06 16:53:02;;;;;;;;;;;5.30;99.90;;;;;;6866501;28;19917;-66
2021/04/06 16:56:23;;;;;;;;;;;5.10;99.90;;;;;;6882012;28;19917;-66
2021/04/06 16:59:46;;;;;;;;;;;4.80;99.90;;;;;;6875430;28;19920;-63
2021/04/06 17:03:07;;;;;;;;;;;4.60;99.90;;;;;;6891843;28;19913;-67
2021/04/06 17:06:28;;;;;;;;;;;4.40;99.90;;;;;;6860797;28;19961;-66
2021/04/06 17:09:48;;;;;;;;;;;4.20;99.90;;;;;;6881630;28;19914;-65
2021/04/06 17:13:10;;;;;;;;;;;4.10;99.90;;;;;;6888210;28;20321;-65
2021/04/06 17:16:31;;;;;;;;;;;4.00;99.90;;;;;;6871634;28;19917;-64
2021/04/06 17:19:52;;;;;;;;;;;3.90;99.90;;;;;;6900740;28;19924;-66
2021/04/06 17:23:13;;;;;;;;;;;3.90;99.90;;;;;;6867346;28;19917;-66
2021/04/06 17:26:34;;;;;;;;;;;3.70;99.90;;;;;;6877034;28;19913;-65
2021/04/06 17:29:59;;;;;;;;;;;3.60;99.90;;;;;;6881401;28;19914;-65
2021/04/06 17:33:21;;;;;;;;;;;3.60;99.90;;;;;;6886966;28;19924;-66
2021/04/06 17:36:42;;;;;;;;;;;3.40;99.90;;;;;;6860191;28;19929;-65
2021/04/06 17:40:04;;;;;;;;;;;3.40;99.90;;;;;;6855039;28;20049;-64
2021/04/06 17:43:25;;;;;;;;;;;3.30;99.90;;;;;;6898186;28;20040;-65
2021/04/06 17:46:46;;;;;;;;;;;3.30;99.90;;;;;;6876915;28;19917;-65
2021/04/06 17:50:07;;;;;;;;;;;3.30;99.90;;;;;;6868879;28;19936;-65
2021/04/06 17:53:29;;;;;;;;;;;3.10;99.90;;;;;;6888152;28;19921;-65
2021/04/06 17:56:49;;;;;;;;;;;3.10;99.90;;;;;;6875556;28;19937;-65
2021/04/06 18:00:14;;;;;;;;;;;3.10;99.90;;;;;;6888208;28;19940;-66
2021/04/06 18:03:35;;;;;;;;;;;3.20;99.90;;;;;;6862790;28;19937;-65
2021/04/06 18:06:56;;;;;;;;;;;3.30;99.90;;;;;;6884889;28;19921;-65
2021/04/06 18:10:22;;;;;;;;;;;3.30;99.90;;;;;;6897324;28;19960;-65
2021/04/06 18:13:44;;;;;;;;;;;3.30;99.90;;;;;;6862945;28;20388;-64
2021/04/06 18:17:05;;;;;;;;;;;3.30;99.90;;;;;;6890035;28;20277;-65
2021/04/06 18:20:26;;;;;;;;;;;3.30;99.90;;;;;;6866657;28;19913;-66
2021/04/06 18:23:47;;;;;;;;;;;3.20;99.90;;;;;;6907551;28;19913;-66
2021/04/06 18:27:08;;;;;;;;;;;3.10;99.90;;;;;;6874686;28;19928;-66
2021/04/06 18:30:39;;;;;;;;;;;3.00;99.90;;;;;;6879769;28;19917;-66
2021/04/06 18:34:00;;;;;;;;;;;2.90;99.90;;;;;;6863591;28;19922;-65
2021/04/06 18:37:21;;;;;;;;;;;2.90;99.90;;;;;;6883023;28;20358;-64
2021/04/06 18:40:42;;;;;;;;;;;2.80;99.90;;;;;;6858419;28;19914;-64
2021/04/06 18:44:03;;;;;;;;;;;2.70;99.90;;;;;;6864792;28;19944;-65
2021/04/06 18:47:24;;;;;;;;;;;2.70;99.90;;;;;;6877486;28;19914;-65
2021/04/06 18:50:45;;;;;;;;;;;2.70;99.90;;;;;;6867123;28;20016;-65
2021/04/06 18:54:06;;;;;;;;;;;2.60;99.90;;;;;;6880956;28;19924;-65
2021/04/06 18:57:27;;;;;;;;;;;2.70;99.90;;;;;;6888476;28;19920;-64
2021/04/06 19:00:48;;;;;;;;;;;2.60;99.90;;;;;;6865409;28;19913;-65
2021/04/06 19:04:09;;;;;;;;;;;2.60;99.90;;;;;;6867544;28;19914;-64
2021/04/06 19:07:30;;;;;;;;;;;2.50;99.90;;;;;;6876302;28;20000;-64
2021/04/06 19:10:52;;;;;;;;;;;2.50;99.90;;;;;;6871543;28;19920;-65
2021/04/06 19:14:14;;;;;;;;;;;2.40;99.90;;;;;;6879115;28;19948;-64
2021/04/06 19:17:35;;;;;;;;;;;2.40;99.90;;;;;;6870470;28;20357;-65
2021/04/06 19:20:56;;;;;;;;;;;2.30;99.90;;;;;;6865360;28;19921;-67
2021/04/06 19:24:17;;;;;;;;;;;2.30;99.90;;;;;;6896559;28;19921;-66
2021/04/06 19:27:38;;;;;;;;;;;2.30;99.90;;;;;;6882513;28;20012;-66
2021/04/06 19:31:00;;;;;;;;;;;2.20;99.90;;;;;;6880699;28;19913;-67
2021/04/06 19:34:21;;;;;;;;;;;2.20;99.90;;;;;;6884234;28;19983;-68
2021/04/06 19:37:42;;;;;;;;;;;2.20;99.90;;;;;;6891262;28;19952;-67
2021/04/06 19:41:04;;;;;;;;;;;2.20;99.90;;;;;;6874162;28;19914;-67
2021/04/06 19:44:28;;;;;;;;;;;2.20;99.90;;;;;;6892109;28;19931;-67
2021/04/06 19:47:50;;;;;;;;;;;2.20;99.90;;;;;;6896921;28;19931;-68
2021/04/06 19:51:11;;;;;;;;;;;2.20;99.90;;;;;;6881182;28;19917;-67